Time;durP1;ratioP1;P1;durP2;ratioP2;P2;SDS_P1;SDS_P2;PMS_P1;PMS_P2;Temp;Humidity;BMP_temperature;BMP_pressure;BME280_temperature;BME280_humidity;BME280_pressure;Samples;Min_cycle;Max_cycle;Signal;HPM_P1;HPM_P2
2021/11/13 00:00:05;;;;;;;23.20;13.33;;;;;;;;;;5035960;28;20305;-79
2021/11/13 00:02:32;;;;;;;15.63;12.10;;;;;;;;;;5036218;28;20539;-79
2021/11/13 00:04:59;;;;;;;15.30;11.00;;;;;;;;;;5035804;28;20518;-79
2021/11/13 00:07:28;;;;;;;15.80;11.90;;;;;;;;;;5036127;28;20241;-78
2021/11/13 00:09:55;;;;;;;16.47;13.27;;;;;;;;;;5036131;28;20517;-78
2021/11/13 00:12:23;;;;;;;19.03;13.27;;;;;;;;;;5036143;28;20481;-78
2021/11/13 00:14:50;;;;;;;16.27;12.03;;;;;;;;;;5036484;28;20537;-77
2021/11/13 00:17:18;;;;;;;21.73;12.93;;;;;;;;;;5035864;28;20931;-78
2021/11/13 00:19:46;;;;;;;18.17;12.40;;;;;;;;;;5036147;28;20231;-77
2021/11/13 00:22:13;;;;;;;14.30;11.32;;;;;;;;;;5036074;28;20434;-78
2021/11/13 00:24:42;;;;;;;16.83;12.07;;;;;;;;;;5035979;28;20309;-78
2021/11/13 00:27:09;;;;;;;15.30;11.87;;;;;;;;;;5035558;28;20207;-78
2021/11/13 00:29:36;;;;;;;19.57;13.17;;;;;;;;;;5035336;28;20459;-77
2021/11/13 00:32:04;;;;;;;17.80;12.30;;;;;;;;;;5036274;28;20454;-78
2021/11/13 00:34:31;;;;;;;18.20;12.23;;;;;;;;;;5035350;28;21001;-77
2021/11/13 00:36:59;;;;;;;16.88;12.13;;;;;;;;;;5035739;28;20476;-78
2021/11/13 00:39:26;;;;;;;16.42;12.02;;;;;;;;;;5035199;28;20282;-77
2021/11/13 00:41:55;;;;;;;16.20;11.98;;;;;;;;;;5035206;28;20199;-78
2021/11/13 00:44:22;;;;;;;19.73;13.67;;;;;;;;;;5035390;28;20212;-77
2021/11/13 00:46:49;;;;;;;20.40;13.17;;;;;;;;;;5035031;28;20453;-78
2021/11/13 00:49:17;;;;;;;16.55;11.90;;;;;;;;;;5035992;28;20867;-78
2021/11/13 00:51:45;;;;;;;16.27;12.17;;;;;;;;;;5035334;28;20613;-77
2021/11/13 00:54:12;;;;;;;18.00;14.40;;;;;;;;;;5035239;28;20556;-78
2021/11/13 00:56:40;;;;;;;18.85;13.23;;;;;;;;;;5035955;28;20446;-78
2021/11/13 00:59:09;;;;;;;17.57;13.67;;;;;;;;;;5034853;28;20650;-79
2021/11/13 01:01:36;;;;;;;21.80;12.97;;;;;;;;;;5035664;28;20495;-78
2021/11/13 01:04:03;;;;;;;23.60;12.30;;;;;;;;;;5035019;28;20512;-78
2021/11/13 01:06:31;;;;;;;17.03;12.10;;;;;;;;;;5034723;28;20523;-77
2021/11/13 01:08:58;;;;;;;15.43;12.07;;;;;;;;;;5035702;28;20525;-77
2021/11/13 01:11:27;;;;;;;16.80;12.38;;;;;;;;;;5034697;28;20572;-78
2021/11/13 01:13:54;;;;;;;17.83;11.15;;;;;;;;;;5034867;28;20580;-78
2021/11/13 01:16:24;;;;;;;15.50;10.90;;;;;;;;;;5034495;28;20227;-77
2021/11/13 01:18:51;;;;;;;14.60;11.57;;;;;;;;;;5034705;28;20993;-77
2021/11/13 01:21:18;;;;;;;13.97;9.90;;;;;;;;;;5034914;28;20525;-78
2021/11/13 01:23:46;;;;;;;18.00;11.10;;;;;;;;;;5034869;28;20538;-79
2021/11/13 01:26:13;;;;;;;15.20;10.80;;;;;;;;;;5035449;28;20441;-78
2021/11/13 01:28:40;;;;;;;15.45;10.38;;;;;;;;;;5034582;28;20574;-74
2021/11/13 01:31:07;;;;;;;16.42;11.05;;;;;;;;;;5034530;28;20290;-79
2021/11/13 01:33:36;;;;;;;14.73;10.95;;;;;;;;;;5034890;28;20289;-78
2021/11/13 01:36:04;;;;;;;17.90;12.00;;;;;;;;;;5034437;28;20289;-78
2021/11/13 01:38:32;;;;;;;13.45;10.60;;;;;;;;;;5033897;28;20867;-79
2021/11/13 01:40:59;;;;;;;13.80;10.77;;;;;;;;;;5034152;28;20238;-78
2021/11/13 01:43:27;;;;;;;14.70;10.18;;;;;;;;;;5034949;28;20548;-77
2021/11/13 01:45:54;;;;;;;15.90;9.23;;;;;;;;;;5034369;28;20242;-77
2021/11/13 01:48:21;;;;;;;18.15;12.15;;;;;;;;;;5034358;28;20461;-77
2021/11/13 01:50:50;;;;;;;13.95;10.65;;;;;;;;;;5034309;28;20235;-77
2021/11/13 01:53:17;;;;;;;14.97;10.33;;;;;;;;;;5034721;28;20285;-77
2021/11/13 01:55:44;;;;;;;13.98;9.63;;;;;;;;;;5034078;28;20808;-77
2021/11/13 01:58:13;;;;;;;13.67;10.60;;;;;;;;;;5033698;28;20664;-78
2021/11/13 02:00:42;;;;;;;13.57;10.20;;;;;;;;;;5033791;28;20457;-77
2021/11/13 02:03:10;;;;;;;17.73;10.07;;;;;;;;;;5033715;28;20435;-77
2021/11/13 02:05:37;;;;;;;15.38;11.13;;;;;;;;;;5034356;28;20474;-79
2021/11/13 02:08:07;;;;;;;14.30;11.00;;;;;;;;;;5033977;28;20207;-79
2021/11/13 02:10:34;;;;;;;14.23;11.10;;;;;;;;;;5034064;28;20477;-78
2021/11/13 02:13:02;;;;;;;14.50;10.43;;;;;;;;;;5034390;28;20939;-79
2021/11/13 02:15:29;;;;;;;17.50;11.10;;;;;;;;;;5033684;28;20210;-79
2021/11/13 02:17:58;;;;;;;13.93;10.60;;;;;;;;;;5033896;28;20261;-78
2021/11/13 02:20:28;;;;;;;16.23;10.70;;;;;;;;;;5034078;28;20305;-78
2021/11/13 02:22:57;;;;;;;12.65;10.07;;;;;;;;;;5033726;28;20280;-78
2021/11/13 02:25:26;;;;;;;12.10;10.60;;;;;;;;;;5033454;28;20643;-79
2021/11/13 02:27:53;;;;;;;14.13;10.27;;;;;;;;;;5033503;28;20442;-78
2021/11/13 02:30:21;;;;;;;14.55;10.45;;;;;;;;;;5035273;28;20545;-79
2021/11/13 02:32:48;;;;;;;13.20;10.70;;;;;;;;;;5034724;28;20686;-79
2021/11/13 02:35:17;;;;;;;19.23;11.88;;;;;;;;;;5037110;28;20246;-79
2021/11/13 02:37:46;;;;;;;13.53;11.03;;;;;;;;;;5033851;28;20199;-78
2021/11/13 02:40:13;;;;;;;14.30;10.43;;;;;;;;;;5033521;28;20533;-79
2021/11/13 02:42:42;;;;;;;12.43;10.77;;;;;;;;;;5033872;28;20486;-80
2021/11/13 02:45:11;;;;;;;14.88;10.48;;;;;;;;;;5033329;28;20306;-80
2021/11/13 02:47:40;;;;;;;14.25;10.73;;;;;;;;;;5033594;28;20210;-80
2021/11/13 02:50:09;;;;;;;14.55;11.35;;;;;;;;;;5035154;28;20211;-80
2021/11/13 02:52:42;;;;;;;13.43;10.10;;;;;;;;;;5037423;28;20198;-80
2021/11/13 02:55:11;;;;;;;14.70;10.93;;;;;;;;;;5037757;28;20190;-80
2021/11/13 02:57:39;;;;;;;17.40;11.60;;;;;;;;;;5037864;28;20524;-82
2021/11/13 03:00:07;;;;;;;19.83;12.23;;;;;;;;;;5038065;28;20476;-81
2021/11/13 03:02:34;;;;;;;16.63;11.07;;;;;;;;;;5037222;28;20438;-80
2021/11/13 03:05:01;;;;;;;16.07;12.03;;;;;;;;;;5037226;28;20991;-79
2021/11/13 03:07:29;;;;;;;15.97;11.80;;;;;;;;;;5037378;28;20527;-80
2021/11/13 03:09:56;;;;;;;19.97;12.80;;;;;;;;;;5037373;28;20533;-81
2021/11/13 03:12:25;;;;;;;18.43;12.60;;;;;;;;;;5037213;28;20505;-78
2021/11/13 03:14:52;;;;;;;13.73;11.50;;;;;;;;;;5037030;28;20481;-80
2021/11/13 03:17:19;;;;;;;16.92;11.85;;;;;;;;;;5037015;28;20537;-82
2021/11/13 03:19:46;;;;;;;17.53;12.33;;;;;;;;;;5037257;28;20286;-81
2021/11/13 03:22:14;;;;;;;20.37;11.53;;;;;;;;;;5036902;28;20973;-81
2021/11/13 03:24:41;;;;;;;24.40;13.35;;;;;;;;;;5036758;28;20529;-81
2021/11/13 03:27:08;;;;;;;16.08;12.43;;;;;;;;;;5036837;28;20210;-81
2021/11/13 03:29:38;;;;;;;18.93;14.20;;;;;;;;;;5037158;28;20696;-82
2021/11/13 03:32:05;;;;;;;19.58;13.05;;;;;;;;;;5036713;28;20452;-79
2021/11/13 03:34:33;;;;;;;25.60;14.40;;;;;;;;;;5036847;28;20207;-77
2021/11/13 03:37:01;;;;;;;17.87;13.07;;;;;;;;;;5037204;28;20206;-77
2021/11/13 03:39:28;;;;;;;30.97;13.80;;;;;;;;;;5036529;28;20532;-78
2021/11/13 03:41:55;;;;;;;19.80;13.80;;;;;;;;;;5036751;28;20552;-78
2021/11/13 03:44:22;;;;;;;20.90;13.17;;;;;;;;;;5036886;28;20477;-78
2021/11/13 03:46:51;;;;;;;18.80;13.68;;;;;;;;;;5036693;28;20480;-77
2021/11/13 03:49:18;;;;;;;17.88;14.07;;;;;;;;;;5036963;28;20281;-77
2021/11/13 03:51:45;;;;;;;41.10;29.52;;;;;;;;;;5036672;28;20234;-78
2021/11/13 03:54:13;;;;;;;17.23;12.80;;;;;;;;;;5036347;28;20283;-77
2021/11/13 03:56:40;;;;;;;20.23;13.30;;;;;;;;;;5036568;28;20485;-77
2021/11/13 03:59:07;;;;;;;17.43;13.03;;;;;;;;;;5036436;28;20542;-78
2021/11/13 04:01:34;;;;;;;21.90;14.45;;;;;;;;;;5035978;28;20865;-78
2021/11/13 04:04:04;;;;;;;21.45;14.27;;;;;;;;;;5036957;28;20283;-78
2021/11/13 04:06:31;;;;;;;21.55;15.05;;;;;;;;;;5036480;28;20245;-77
2021/11/13 04:08:58;;;;;;;25.67;16.58;;;;;;;;;;5035985;28;20670;-77
2021/11/13 04:11:25;;;;;;;21.02;13.50;;;;;;;;;;5035917;28;20322;-77
2021/11/13 04:13:52;;;;;;;25.13;15.43;;;;;;;;;;5036305;28;20249;-77
2021/11/13 04:16:20;;;;;;;21.77;14.82;;;;;;;;;;5036407;28;20286;-78
2021/11/13 04:18:47;;;;;;;23.57;16.30;;;;;;;;;;5036027;28;20283;-78
2021/11/13 04:21:16;;;;;;;21.42;14.65;;;;;;;;;;5035598;28;20442;-77
2021/11/13 04:23:44;;;;;;;21.13;15.25;;;;;;;;;;5035771;28;20720;-77
2021/11/13 04:26:12;;;;;;;21.75;15.55;;;;;;;;;;5035999;28;20230;-78
2021/11/13 04:28:39;;;;;;;20.23;16.17;;;;;;;;;;5035946;28;20202;-77
2021/11/13 04:31:07;;;;;;;24.03;16.43;;;;;;;;;;5035554;28;20248;-78
2021/11/13 04:33:34;;;;;;;23.13;16.25;;;;;;;;;;5035868;28;20469;-78
2021/11/13 04:36:06;;;;;;;26.83;16.38;;;;;;;;;;5035862;28;20257;-78
2021/11/13 04:38:35;;;;;;;23.13;14.73;;;;;;;;;;5035528;28;20241;-77
2021/11/13 04:41:04;;;;;;;26.77;15.90;;;;;;;;;;5035705;28;20525;-77
2021/11/13 04:43:32;;;;;;;24.63;16.05;;;;;;;;;;5035279;28;20652;-78
2021/11/13 04:45:59;;;;;;;26.50;16.98;;;;;;;;;;5035232;28;20230;-78
2021/11/13 04:48:26;;;;;;;25.67;16.15;;;;;;;;;;5035260;28;20191;-77
2021/11/13 04:50:55;;;;;;;23.05;17.15;;;;;;;;;;5035136;28;20246;-77
2021/11/13 04:53:23;;;;;;;22.37;15.20;;;;;;;;;;5036020;28;20633;-77
2021/11/13 04:55:51;;;;;;;28.63;18.02;;;;;;;;;;5035033;28;20536;-77
2021/11/13 04:58:19;;;;;;;28.02;17.25;;;;;;;;;;5035959;28;20609;-77
2021/11/13 05:00:46;;;;;;;32.53;17.20;;;;;;;;;;5035600;28;20629;-76
2021/11/13 05:03:13;;;;;;;30.35;16.63;;;;;;;;;;5035334;28;20252;-76
2021/11/13 05:05:40;;;;;;;29.50;17.58;;;;;;;;;;5035161;28;20253;-76
2021/11/13 05:08:08;;;;;;;23.63;17.50;;;;;;;;;;5035283;28;20206;-78
2021/11/13 05:10:35;;;;;;;24.38;15.55;;;;;;;;;;5035111;28;20210;-76
2021/11/13 05:13:04;;;;;;;24.42;17.08;;;;;;;;;;5034934;28;20226;-74
2021/11/13 05:15:31;;;;;;;28.27;17.60;;;;;;;;;;5041365;28;20233;-75
2021/11/13 05:17:58;;;;;;;23.17;15.77;;;;;;;;;;5035143;28;20262;-73
2021/11/13 05:20:26;;;;;;;28.58;17.42;;;;;;;;;;5034979;28;20262;-82
2021/11/13 05:22:53;;;;;;;30.45;17.80;;;;;;;;;;5035119;28;20202;-83
2021/11/13 05:25:22;;;;;;;27.15;16.15;;;;;;;;;;5032811;28;20767;-80
2021/11/13 05:27:49;;;;;;;29.30;17.40;;;;;;;;;;5034121;28;20196;-84
2021/11/13 05:30:19;;;;;;;26.08;18.08;;;;;;;;;;5034232;28;20196;-83
2021/11/13 05:32:47;;;;;;;27.17;16.80;;;;;;;;;;5034151;28;20297;-80
2021/11/13 05:35:15;;;;;;;27.60;18.48;;;;;;;;;;5034433;28;20236;-81
2021/11/13 05:37:42;;;;;;;25.97;17.07;;;;;;;;;;5034457;28;20282;-82
2021/11/13 05:40:11;;;;;;;24.73;17.27;;;;;;;;;;5034272;28;20477;-82
2021/11/13 05:42:38;;;;;;;29.15;18.25;;;;;;;;;;5035148;28;20241;-84
2021/11/13 05:45:07;;;;;;;24.77;15.93;;;;;;;;;;5034278;28;20206;-82
2021/11/13 05:47:35;;;;;;;26.40;17.87;;;;;;;;;;5034178;28;20284;-81
2021/11/13 05:50:03;;;;;;;23.42;17.60;;;;;;;;;;5034170;28;20519;-81
2021/11/13 05:52:30;;;;;;;24.38;18.00;;;;;;;;;;5034061;28;20623;-84
2021/11/13 05:54:57;;;;;;;26.95;17.23;;;;;;;;;;5032233;28;20282;-82
2021/11/13 05:57:24;;;;;;;24.10;17.83;;;;;;;;;;5034263;28;20200;-81
2021/11/13 05:59:51;;;;;;;22.90;16.35;;;;;;;;;;5033724;28;20297;-81
2021/11/13 06:02:19;;;;;;;31.92;17.73;;;;;;;;;;5033361;28;20290;-82
2021/11/13 06:04:47;;;;;;;25.38;18.10;;;;;;;;;;5033264;28;20305;-83
2021/11/13 06:07:14;;;;;;;22.15;17.08;;;;;;;;;;5033097;28;20258;-82
2021/11/13 06:09:42;;;;;;;26.85;18.20;;;;;;;;;;5033312;28;20195;-81
2021/11/13 06:12:09;;;;;;;22.58;15.88;;;;;;;;;;5033350;28;20288;-81
2021/11/13 06:14:37;;;;;;;24.13;17.38;;;;;;;;;;5033393;28;20258;-81
2021/11/13 06:17:04;;;;;;;24.38;17.40;;;;;;;;;;5032822;28;20208;-79
2021/11/13 06:19:31;;;;;;;22.80;16.77;;;;;;;;;;5033231;28;20660;-80
2021/11/13 06:22:00;;;;;;;23.07;17.20;;;;;;;;;;5033219;28;20536;-79
2021/11/13 06:24:28;;;;;;;30.17;17.48;;;;;;;;;;5032899;28;20917;-75
2021/11/13 06:26:55;;;;;;;25.30;17.25;;;;;;;;;;5011785;28;20716;-81
2021/11/13 06:29:22;;;;;;;24.95;18.00;;;;;;;;;;5013659;28;20235;-81
2021/11/13 06:31:50;;;;;;;24.27;16.45;;;;;;;;;;5013686;28;20230;-79
2021/11/13 06:34:17;;;;;;;23.88;16.60;;;;;;;;;;5013667;28;20392;-81
2021/11/13 06:36:44;;;;;;;23.17;16.77;;;;;;;;;;5013460;28;20237;-82
2021/11/13 06:39:13;;;;;;;28.23;16.15;;;;;;;;;;5013282;28;20712;-80
2021/11/13 06:41:40;;;;;;;24.88;17.67;;;;;;;;;;5013389;28;20234;-83
2021/11/13 06:44:07;;;;;;;23.13;16.80;;;;;;;;;;5013604;28;20202;-82
2021/11/13 06:46:35;;;;;;;31.52;15.35;;;;;;;;;;5013351;28;20261;-82
2021/11/13 06:49:02;;;;;;;21.70;15.52;;;;;;;;;;5013613;28;20238;-82
2021/11/13 06:51:29;;;;;;;22.65;15.07;;;;;;;;;;5012844;28;20553;-82
2021/11/13 06:53:56;;;;;;;24.55;16.55;;;;;;;;;;5013138;28;20293;-82
2021/11/13 06:56:25;;;;;;;24.25;16.85;;;;;;;;;;5011366;28;20256;-82
2021/11/13 06:58:52;;;;;;;19.70;14.52;;;;;;;;;;5012920;28;20236;-82
2021/11/13 07:01:20;;;;;;;22.25;14.90;;;;;;;;;;5013280;28;20291;-81
2021/11/13 07:03:47;;;;;;;21.30;14.50;;;;;;;;;;5012731;28;20239;-81
2021/11/13 07:06:14;;;;;;;24.20;16.00;;;;;;;;;;5012647;28;20473;-81
2021/11/13 07:08:42;;;;;;;24.23;17.00;;;;;;;;;;5013107;28;20295;-82
2021/11/13 07:11:09;;;;;;;22.52;15.82;;;;;;;;;;5013139;28;20322;-82
2021/11/13 07:13:37;;;;;;;19.90;13.80;;;;;;;;;;5012956;28;20291;-79
2021/11/13 07:16:06;;;;;;;20.27;15.10;;;;;;;;;;5011872;28;20456;-80
2021/11/13 07:18:33;;;;;;;21.27;15.10;;;;;;;;;;5012550;28;20254;-80
2021/11/13 07:21:01;;;;;;;19.17;16.30;;;;;;;;;;5012597;28;20524;-81
2021/11/13 07:23:30;;;;;;;20.30;15.77;;;;;;;;;;5012596;28;20441;-81
2021/11/13 07:25:57;;;;;;;24.20;16.50;;;;;;;;;;5010716;28;20480;-80
2021/11/13 07:28:36;;;;;;;22.13;17.05;;;;;;;;;;5012636;28;20525;-81
2021/11/13 07:31:05;;;;;;;24.60;16.90;;;;;;;;;;5012763;28;20180;-81
2021/11/13 07:33:32;;;;;;;26.63;17.80;;;;;;;;;;5012698;28;20542;-81
2021/11/13 07:36:00;;;;;;;23.75;16.77;;;;;;;;;;5013685;28;20566;-81
2021/11/13 07:38:27;;;;;;;25.35;18.95;;;;;;;;;;5016530;28;20652;-80
2021/11/13 07:40:55;;;;;;;24.13;18.27;;;;;;;;;;5016059;28;20287;-80
2021/11/13 07:43:22;;;;;;;24.80;18.97;;;;;;;;;;5017230;28;20231;-81
2021/11/13 07:45:50;;;;;;;22.60;16.40;;;;;;;;;;5016706;28;20473;-80
2021/11/13 07:48:18;;;;;;;24.63;18.90;;;;;;;;;;5016344;28;20514;-80
2021/11/13 07:50:46;;;;;;;24.95;18.65;;;;;;;;;;5016443;28;20442;-80
2021/11/13 07:53:13;;;;;;;24.00;18.48;;;;;;;;;;5016981;28;20289;-80
2021/11/13 07:55:41;;;;;;;26.55;18.80;;;;;;;;;;5017545;28;20200;-80
2021/11/13 07:58:09;;;;;;;23.65;17.27;;;;;;;;;;5035494;28;20575;-80
2021/11/13 08:00:37;;;;;;;27.73;19.52;;;;;;;;;;5036084;28;20199;-80
2021/11/13 08:03:05;;;;;;;24.00;18.10;;;;;;;;;;5035419;28;20656;-78
2021/11/13 08:05:33;;;;;;;19.88;17.17;;;;;;;;;;5035674;28;20532;-80
2021/11/13 08:08:00;;;;;;;26.77;17.15;;;;;;;;;;5035153;28;20766;-80
2021/11/13 08:10:28;;;;;;;24.35;18.23;;;;;;;;;;5035829;28;20241;-80
2021/11/13 08:12:55;;;;;;;21.92;16.90;;;;;;;;;;5035858;28;20314;-79
2021/11/13 08:15:23;;;;;;;21.17;17.33;;;;;;;;;;5035276;28;20196;-81
2021/11/13 08:17:50;;;;;;;20.25;17.60;;;;;;;;;;5034934;28;20290;-80
2021/11/13 08:20:17;;;;;;;21.88;16.92;;;;;;;;;;5035867;28;20253;-80
2021/11/13 08:22:46;;;;;;;20.45;16.73;;;;;;;;;;5034865;28;20239;-80
2021/11/13 08:25:14;;;;;;;20.88;16.15;;;;;;;;;;5035426;28;20198;-78
2021/11/13 08:27:43;;;;;;;19.83;16.30;;;;;;;;;;5033156;28;20222;-80
2021/11/13 08:30:10;;;;;;;20.85;17.10;;;;;;;;;;5035270;28;20438;-76
2021/11/13 08:32:39;;;;;;;21.85;15.30;;;;;;;;;;5035370;28;20286;-78
2021/11/13 08:35:07;;;;;;;21.25;16.00;;;;;;;;;;5035518;28;20227;-79
2021/11/13 08:37:34;;;;;;;17.15;15.20;;;;;;;;;;5034895;28;20269;-79
2021/11/13 08:40:03;;;;;;;18.83;15.05;;;;;;;;;;5034665;28;20303;-79
2021/11/13 08:42:30;;;;;;;17.85;14.30;;;;;;;;;;5034851;28;20293;-80
2021/11/13 08:44:58;;;;;;;17.53;14.87;;;;;;;;;;5035182;28;20200;-79
2021/11/13 08:47:25;;;;;;;15.80;13.18;;;;;;;;;;5034224;28;20519;-78
2021/11/13 08:49:53;;;;;;;19.70;14.10;;;;;;;;;;5034975;28;20234;-79
2021/11/13 08:52:22;;;;;;;18.65;13.70;;;;;;;;;;5034387;28;20499;-78
2021/11/13 08:54:50;;;;;;;15.48;13.07;;;;;;;;;;5035406;28;20283;-80
2021/11/13 08:57:19;;;;;;;16.03;14.20;;;;;;;;;;5033196;28;20617;-78
2021/11/13 08:59:47;;;;;;;16.60;12.93;;;;;;;;;;5034843;28;20539;-78
2021/11/13 09:02:16;;;;;;;14.87;12.60;;;;;;;;;;5034526;28;20536;-78
2021/11/13 09:04:44;;;;;;;14.00;12.50;;;;;;;;;;5034426;28;20481;-79
2021/11/13 09:07:12;;;;;;;20.27;14.05;;;;;;;;;;5034392;28;20585;-79
2021/11/13 09:09:40;;;;;;;18.65;12.90;;;;;;;;;;5034357;28;20289;-79
2021/11/13 09:12:09;;;;;;;21.73;13.20;;;;;;;;;;5034604;28;20233;-79
2021/11/13 09:14:37;;;;;;;18.87;12.50;;;;;;;;;;5034618;28;20470;-78
2021/11/13 09:17:05;;;;;;;13.30;11.90;;;;;;;;;;5034203;28;20446;-77
2021/11/13 09:19:32;;;;;;;15.80;13.03;;;;;;;;;;5034347;28;20284;-78
2021/11/13 09:21:59;;;;;;;12.77;11.07;;;;;;;;;;5034524;28;20451;-76
2021/11/13 09:24:27;;;;;;;17.60;11.30;;;;;;;;;;5034311;28;20862;-76
2021/11/13 09:26:54;;;;;;;14.20;11.30;;;;;;;;;;5032514;28;20565;-78
2021/11/13 09:29:22;;;;;;;15.43;11.60;;;;;;;;;;5033529;28;20526;-77
2021/11/13 09:31:51;;;;;;;11.97;10.67;;;;;;;;;;5034035;28;20473;-77
2021/11/13 09:34:19;;;;;;;15.57;11.23;;;;;;;;;;5034026;28;20928;-77
2021/11/13 09:36:47;;;;;;;12.13;10.82;;;;;;;;;;5033752;28;20481;-78
2021/11/13 09:39:14;;;;;;;15.20;11.80;;;;;;;;;;5033345;28;20657;-78
2021/11/13 09:41:42;;;;;;;14.90;11.33;;;;;;;;;;5033503;28;20835;-70
2021/11/13 09:44:10;;;;;;;13.70;12.23;;;;;;;;;;5033669;28;20529;-78
2021/11/13 09:46:37;;;;;;;13.10;11.73;;;;;;;;;;5033921;28;20473;-75
2021/11/13 09:49:06;;;;;;;13.13;11.70;;;;;;;;;;5033434;28;20453;-77
2021/11/13 09:51:34;;;;;;;14.07;12.67;;;;;;;;;;5033450;28;20477;-75
2021/11/13 09:54:01;;;;;;;12.93;11.20;;;;;;;;;;5033300;28;20864;-77
2021/11/13 09:56:29;;;;;;;15.97;12.23;;;;;;;;;;5034143;28;20491;-77
2021/11/13 09:58:56;;;;;;;15.50;11.40;;;;;;;;;;5031224;28;20446;-77
2021/11/13 10:01:23;;;;;;;16.67;13.17;;;;;;;;;;5033336;28;20446;-77
2021/11/13 10:03:51;;;;;;;14.07;12.67;;;;;;;;;;5033515;28;20882;-77
2021/11/13 10:06:19;;;;;;;14.27;12.77;;;;;;;;;;5033374;28;20457;-77
2021/11/13 10:08:49;;;;;;;15.03;12.37;;;;;;;;;;5033009;28;20577;-77
2021/11/13 10:11:17;;;;;;;12.83;11.30;;;;;;;;;;5033113;28;20481;-77
2021/11/13 10:13:46;;;;;;;17.43;14.03;;;;;;;;;;5033500;28;20496;-77
2021/11/13 10:16:15;;;;;;;15.10;12.73;;;;;;;;;;5033182;28;20529;-77
2021/11/13 10:18:44;;;;;;;18.33;13.50;;;;;;;;;;5032693;28;20449;-77
2021/11/13 10:21:12;;;;;;;19.77;12.77;;;;;;;;;;5033077;28;20529;-77
2021/11/13 10:23:43;;;;;;;13.83;11.50;;;;;;;;;;5033140;28;20525;-77
2021/11/13 10:26:14;;;;;;;18.27;14.30;;;;;;;;;;5033307;28;20507;-77
2021/11/13 10:28:44;;;;;;;13.00;11.60;;;;;;;;;;5016947;28;20489;-77
2021/11/13 10:31:12;;;;;;;18.00;15.40;;;;;;;;;;5013246;28;20534;-77
2021/11/13 10:33:40;;;;;;;17.30;13.17;;;;;;;;;;5013356;28;20485;-77
2021/11/13 10:36:08;;;;;;;14.20;11.87;;;;;;;;;;5013552;28;20630;-77
2021/11/13 10:38:35;;;;;;;15.57;13.95;;;;;;;;;;5013167;28;20529;-78
2021/11/13 10:41:06;;;;;;;19.30;12.20;;;;;;;;;;5012758;28;20716;-76
2021/11/13 10:43:37;;;;;;;15.77;13.90;;;;;;;;;;5011964;28;20537;-76
2021/11/13 10:46:06;;;;;;;14.80;13.20;;;;;;;;;;5013123;28;20518;-75
2021/11/13 10:48:35;;;;;;;15.30;12.97;;;;;;;;;;5012862;28;20506;-73
2021/11/13 10:51:04;;;;;;;18.60;14.50;;;;;;;;;;5013273;28;20567;-82
2021/11/13 10:53:32;;;;;;;15.77;14.10;;;;;;;;;;5012900;28;20533;-74
2021/11/13 10:56:08;;;;;;;17.60;15.50;;;;;;;;;;5012449;28;20537;-73
2021/11/13 10:58:37;;;;;;;18.00;15.57;;;;;;;;;;5020118;28;20445;-74
2021/11/13 11:01:05;;;;;;;16.00;13.43;;;;;;;;;;5032256;28;20525;-74
2021/11/13 11:03:34;;;;;;;15.20;13.20;;;;;;;;;;5032795;28;20434;-78
2021/11/13 11:06:01;;;;;;;15.17;12.53;;;;;;;;;;5032911;28;20470;-77
2021/11/13 11:08:29;;;;;;;18.13;14.20;;;;;;;;;;5032539;28;20565;-76
2021/11/13 11:10:57;;;;;;;18.90;14.10;;;;;;;;;;5033510;28;20535;-77
2021/11/13 11:13:39;;;;;;;16.03;14.43;;;;;;;;;;5036737;28;20496;-77
2021/11/13 11:16:18;;;;;;;17.00;14.00;;;;;;;;;;5034012;28;20533;-77
2021/11/13 11:18:59;;;;;;;14.53;12.67;;;;;;;;;;5036243;28;20474;-78
2021/11/13 11:21:47;;;;;;;14.70;12.03;;;;;;;;;;5036587;28;20464;-76
2021/11/13 11:24:15;;;;;;;13.37;11.53;;;;;;;;;;5036416;28;20465;-74
2021/11/13 11:26:44;;;;;;;12.73;11.43;;;;;;;;;;5036256;28;20536;-73
2021/11/13 11:29:11;;;;;;;13.97;12.10;;;;;;;;;;5034247;28;20476;-74
2021/11/13 11:31:44;;;;;;;12.73;11.43;;;;;;;;;;5035096;28;20525;-74
2021/11/13 11:34:21;;;;;;;22.87;16.30;;;;;;;;;;5036056;28;20966;-75
2021/11/13 11:36:49;;;;;;;18.83;16.53;;;;;;;;;;5036177;28;20533;-75
2021/11/13 11:39:16;;;;;;;19.87;17.07;;;;;;;;;;5036465;28;20488;-74
2021/11/13 11:41:43;;;;;;;17.90;14.30;;;;;;;;;;5035583;28;20493;-75
2021/11/13 11:44:12;;;;;;;18.77;12.20;;;;;;;;;;5035302;28;20525;-76
2021/11/13 11:46:39;;;;;;;15.23;12.27;;;;;;;;;;5036347;28;20521;-75
2021/11/13 11:49:08;;;;;;;13.37;11.80;;;;;;;;;;5035484;28;21065;-76
2021/11/13 11:51:36;;;;;;;14.57;13.13;;;;;;;;;;5035261;28;20437;-75
2021/11/13 11:54:05;;;;;;;13.57;11.20;;;;;;;;;;5035671;28;20482;-75
2021/11/13 11:56:33;;;;;;;13.40;11.03;;;;;;;;;;5036326;28;20782;-75
2021/11/13 11:59:01;;;;;;;20.90;13.37;;;;;;;;;;5035885;28;20441;-75
2021/11/13 12:01:30;;;;;;;13.20;11.40;;;;;;;;;;5034008;28;20755;-75
2021/11/13 12:04:18;;;;;;;16.87;12.03;;;;;;;;;;5035933;28;20437;-74
2021/11/13 12:06:46;;;;;;;16.07;12.40;;;;;;;;;;5036490;28;20518;-76
2021/11/13 12:09:14;;;;;;;16.40;13.27;;;;;;;;;;5035631;28;20565;-75
2021/11/13 12:11:42;;;;;;;12.87;10.30;;;;;;;;;;5035280;28;20556;-75
2021/11/13 12:14:28;;;;;;;14.80;11.07;;;;;;;;;;5035125;28;20453;-75
2021/11/13 12:17:16;;;;;;;12.90;11.60;;;;;;;;;;5035209;28;20915;-76
2021/11/13 12:20:04;;;;;;;14.10;11.33;;;;;;;;;;5035528;28;20581;-76
2021/11/13 12:22:35;;;;;;;12.73;11.10;;;;;;;;;;5034875;28;20894;-76
2021/11/13 12:25:12;;;;;;;15.50;10.87;;;;;;;;;;5036346;28;20768;-76
2021/11/13 12:27:39;;;;;;;17.00;12.43;;;;;;;;;;5035239;28;20505;-76
2021/11/13 12:30:07;;;;;;;17.73;12.63;;;;;;;;;;5034028;28;20533;-75
2021/11/13 12:32:37;;;;;;;16.73;15.17;;;;;;;;;;5034862;28;20521;-76
2021/11/13 12:35:07;;;;;;;13.50;11.53;;;;;;;;;;5035142;28;20438;-76
2021/11/13 12:37:34;;;;;;;14.00;11.70;;;;;;;;;;5035226;28;20444;-76
2021/11/13 12:40:01;;;;;;;11.23;9.67;;;;;;;;;;5035297;28;20481;-81
2021/11/13 12:42:30;;;;;;;16.70;11.50;;;;;;;;;;5034903;28;20500;-78
2021/11/13 12:44:58;;;;;;;13.60;11.70;;;;;;;;;;5034130;28;20455;-79
2021/11/13 12:47:28;;;;;;;18.47;11.63;;;;;;;;;;5034929;28;20856;-78
2021/11/13 12:49:56;;;;;;;12.77;11.53;;;;;;;;;;5034929;28;20935;-78
2021/11/13 12:52:33;;;;;;;17.23;14.00;;;;;;;;;;5034211;28;20491;-78
2021/11/13 12:55:12;;;;;;;14.97;12.27;;;;;;;;;;5035367;28;20430;-79
2021/11/13 12:57:41;;;;;;;14.27;12.70;;;;;;;;;;5034916;28;20499;-81
2021/11/13 13:00:11;;;;;;;13.13;11.80;;;;;;;;;;5029950;28;20470;-80
2021/11/13 13:02:38;;;;;;;13.67;12.07;;;;;;;;;;5014463;28;20474;-80
2021/11/13 13:05:09;;;;;;;14.67;11.83;;;;;;;;;;5015098;28;20983;-79
2021/11/13 13:07:38;;;;;;;12.93;11.60;;;;;;;;;;5015263;28;20432;-78
2021/11/13 13:10:09;;;;;;;16.40;12.57;;;;;;;;;;5014289;28;20484;-81
2021/11/13 13:12:38;;;;;;;17.67;13.10;;;;;;;;;;5014295;28;20566;-78
2021/11/13 13:15:07;;;;;;;18.53;12.33;;;;;;;;;;5014475;28;20466;-79
2021/11/13 13:17:36;;;;;;;18.50;12.10;;;;;;;;;;5014465;28;20471;-81
2021/11/13 13:20:04;;;;;;;16.07;13.27;;;;;;;;;;5014787;28;20814;-80
2021/11/13 13:22:31;;;;;;;18.57;13.17;;;;;;;;;;5013495;28;20457;-80
2021/11/13 13:25:01;;;;;;;16.73;13.27;;;;;;;;;;5015036;28;21022;-77
2021/11/13 13:27:29;;;;;;;17.90;13.80;;;;;;;;;;5014566;28;20526;-78
2021/11/13 13:29:57;;;;;;;16.10;12.37;;;;;;;;;;5014362;28;20483;-80
2021/11/13 13:32:25;;;;;;;19.10;13.47;;;;;;;;;;5012614;28;20528;-80
2021/11/13 13:34:54;;;;;;;16.70;14.90;;;;;;;;;;5013159;28;20486;-79
2021/11/13 13:37:22;;;;;;;16.57;14.27;;;;;;;;;;5014349;28;20530;-79
2021/11/13 13:39:51;;;;;;;18.80;14.23;;;;;;;;;;5014294;28;20450;-80
2021/11/13 13:42:19;;;;;;;16.40;14.50;;;;;;;;;;5014424;28;20541;-83
2021/11/13 13:44:47;;;;;;;15.90;14.20;;;;;;;;;;5014366;28;20493;-81
2021/11/13 13:47:15;;;;;;;16.00;13.70;;;;;;;;;;5013653;28;20945;-82
2021/11/13 13:49:42;;;;;;;20.33;14.97;;;;;;;;;;5014552;28;20904;-84
2021/11/13 13:52:10;;;;;;;22.00;14.30;;;;;;;;;;5013781;28;20458;-80
2021/11/13 13:54:39;;;;;;;25.23;14.90;;;;;;;;;;5014407;28;20435;-83
2021/11/13 13:57:08;;;;;;;19.90;15.27;;;;;;;;;;5014009;28;20447;-79
2021/11/13 13:59:38;;;;;;;20.20;13.90;;;;;;;;;;5014299;28;20541;-82
2021/11/13 14:02:07;;;;;;;19.60;15.47;;;;;;;;;;5012001;28;20952;-82
2021/11/13 14:04:37;;;;;;;18.20;14.50;;;;;;;;;;5013932;28;20480;-82
2021/11/13 14:07:08;;;;;;;19.47;16.00;;;;;;;;;;5014511;28;20529;-82
2021/11/13 14:09:35;;;;;;;18.43;14.27;;;;;;;;;;5013253;28;20982;-80
2021/11/13 14:12:03;;;;;;;17.87;14.50;;;;;;;;;;5013884;28;20566;-81
2021/11/13 14:14:31;;;;;;;17.67;14.93;;;;;;;;;;5013846;28;20445;-81
2021/11/13 14:17:00;;;;;;;18.07;15.00;;;;;;;;;;5013621;28;20439;-77
2021/11/13 14:19:27;;;;;;;16.03;13.80;;;;;;;;;;5013719;28;20861;-81
2021/11/13 14:21:54;;;;;;;21.03;14.70;;;;;;;;;;5013241;28;20501;-80